sensor_id;sensor_type;location;lat;lon;timestamp;temperature;humidity
68609;SHT31;55581;46.718;7.690;2023-03-14T00:00:55;8.52;91.45
68609;SHT31;55581;46.718;7.690;2023-03-14T00:03:21;8.52;92.35
68609;SHT31;55581;46.718;7.690;2023-03-14T00:05:46;8.56;92.77
68609;SHT31;55581;46.718;7.690;2023-03-14T00:08:12;8.64;89.04
68609;SHT31;55581;46.718;7.690;2023-03-14T00:10:38;8.71;86.27
68609;SHT31;55581;46.718;7.690;2023-03-14T00:13:05;8.70;88.17
68609;SHT31;55581;46.718;7.690;2023-03-14T00:15:35;8.75;85.50
68609;SHT31;55581;46.718;7.690;2023-03-14T00:18:00;8.63;86.84
68609;SHT31;55581;46.718;7.690;2023-03-14T00:20:26;8.57;88.05
68609;SHT31;55581;46.718;7.690;2023-03-14T00:22:54;8.59;83.58
68609;SHT31;55581;46.718;7.690;2023-03-14T00:25:19;8.68;81.13
68609;SHT31;55581;46.718;7.690;2023-03-14T00:27:44;8.74;85.44
68609;SHT31;55581;46.718;7.690;2023-03-14T00:30:10;8.67;85.08
68609;SHT31;55581;46.718;7.690;2023-03-14T00:32:36;8.60;85.45
68609;SHT31;55581;46.718;7.690;2023-03-14T00:35:02;8.54;84.93
68609;SHT31;55581;46.718;7.690;2023-03-14T00:37:32;8.49;83.35
68609;SHT31;55581;46.718;7.690;2023-03-14T00:40:00;8.43;84.38
68609;SHT31;55581;46.718;7.690;2023-03-14T00:42:25;8.34;87.23
68609;SHT31;55581;46.718;7.690;2023-03-14T00:44:51;8.36;86.63
68609;SHT31;55581;46.718;7.690;2023-03-14T00:47:16;8.30;85.65
68609;SHT31;55581;46.718;7.690;2023-03-14T00:49:41;8.26;86.01
68609;SHT31;55581;46.718;7.690;2023-03-14T00:52:09;8.34;86.91
68609;SHT31;55581;46.718;7.690;2023-03-14T00:54:34;8.32;85.86
68609;SHT31;55581;46.718;7.690;2023-03-14T00:56:59;8.30;87.47
68609;SHT31;55581;46.718;7.690;2023-03-14T00:59:25;8.28;84.19
68609;SHT31;55581;46.718;7.690;2023-03-14T01:01:50;8.28;83.58
68609;SHT31;55581;46.718;7.690;2023-03-14T01:04:16;8.30;83.47
68609;SHT31;55581;46.718;7.690;2023-03-14T01:06:41;8.29;84.28
68609;SHT31;55581;46.718;7.690;2023-03-14T01:09:07;8.23;85.29
68609;SHT31;55581;46.718;7.690;2023-03-14T01:11:34;8.09;88.36
68609;SHT31;55581;46.718;7.690;2023-03-14T01:14:02;7.99;89.72
68609;SHT31;55581;46.718;7.690;2023-03-14T01:16:30;8.02;89.74
68609;SHT31;55581;46.718;7.690;2023-03-14T01:18:57;7.92;90.60
68609;SHT31;55581;46.718;7.690;2023-03-14T01:21:28;7.85;91.15
68609;SHT31;55581;46.718;7.690;2023-03-14T01:23:56;7.81;91.32
68609;SHT31;55581;46.718;7.690;2023-03-14T01:26:26;7.77;92.86
68609;SHT31;55581;46.718;7.690;2023-03-14T01:28:54;7.88;90.74
68609;SHT31;55581;46.718;7.690;2023-03-14T01:31:20;7.95;89.85
68609;SHT31;55581;46.718;7.690;2023-03-14T01:33:45;8.03;87.27
68609;SHT31;55581;46.718;7.690;2023-03-14T01:36:11;8.03;84.11
68609;SHT31;55581;46.718;7.690;2023-03-14T01:38:38;8.05;83.21
68609;SHT31;55581;46.718;7.690;2023-03-14T01:44:27;7.95;83.60
68609;SHT31;55581;46.718;7.690;2023-03-14T01:46:55;7.94;82.45
68609;SHT31;55581;46.718;7.690;2023-03-14T01:49:34;7.89;82.94
68609;SHT31;55581;46.718;7.690;2023-03-14T01:52:22;7.88;83.51
68609;SHT31;55581;46.718;7.690;2023-03-14T01:54:55;7.79;84.07
68609;SHT31;55581;46.718;7.690;2023-03-14T01:57:30;7.84;83.62
68609;SHT31;55581;46.718;7.690;2023-03-14T02:00:19;7.89;82.28
68609;SHT31;55581;46.718;7.690;2023-03-14T02:06:11;7.95;83.90
68609;SHT31;55581;46.718;7.690;2023-03-14T02:08:37;7.92;82.74
68609;SHT31;55581;46.718;7.690;2023-03-14T02:11:05;7.89;84.60
68609;SHT31;55581;46.718;7.690;2023-03-14T02:13:32;7.89;83.36
68609;SHT31;55581;46.718;7.690;2023-03-14T02:15:58;7.89;83.46
68609;SHT31;55581;46.718;7.690;2023-03-14T02:18:23;7.91;82.45
68609;SHT31;55581;46.718;7.690;2023-03-14T02:23:48;7.82;86.25
68609;SHT31;55581;46.718;7.690;2023-03-14T02:26:22;7.77;85.82
68609;SHT31;55581;46.718;7.690;2023-03-14T02:28:48;7.64;88.72
68609;SHT31;55581;46.718;7.690;2023-03-14T02:31:16;7.54;89.31
68609;SHT31;55581;46.718;7.690;2023-03-14T02:33:41;7.40;89.56
68609;SHT31;55581;46.718;7.690;2023-03-14T02:36:10;7.42;90.19
68609;SHT31;55581;46.718;7.690;2023-03-14T02:41:17;7.50;86.72
68609;SHT31;55581;46.718;7.690;2023-03-14T02:43:42;7.56;84.18
68609;SHT31;55581;46.718;7.690;2023-03-14T02:46:11;7.68;84.89
68609;SHT31;55581;46.718;7.690;2023-03-14T02:48:49;7.70;84.76
68609;SHT31;55581;46.718;7.690;2023-03-14T02:51:15;7.74;86.40
68609;SHT31;55581;46.718;7.690;2023-03-14T02:53:41;7.78;82.12
68609;SHT31;55581;46.718;7.690;2023-03-14T02:56:08;7.75;86.94
68609;SHT31;55581;46.718;7.690;2023-03-14T02:58:34;7.73;86.77
68609;SHT31;55581;46.718;7.690;2023-03-14T03:00:59;7.70;87.66
68609;SHT31;55581;46.718;7.690;2023-03-14T03:03:27;7.61;88.57
68609;SHT31;55581;46.718;7.690;2023-03-14T03:05:55;7.60;89.26
68609;SHT31;55581;46.718;7.690;2023-03-14T03:08:22;7.54;89.82
68609;SHT31;55581;46.718;7.690;2023-03-14T03:10:51;7.63;88.77
68609;SHT31;55581;46.718;7.690;2023-03-14T03:13:17;7.67;88.47
68609;SHT31;55581;46.718;7.690;2023-03-14T03:15:43;7.63;87.11
68609;SHT31;55581;46.718;7.690;2023-03-14T03:18:08;7.56;88.40
68609;SHT31;55581;46.718;7.690;2023-03-14T03:20:34;7.39;89.38
68609;SHT31;55581;46.718;7.690;2023-03-14T03:23:00;7.54;83.74
68609;SHT31;55581;46.718;7.690;2023-03-14T03:25:26;7.73;78.59
68609;SHT31;55581;46.718;7.690;2023-03-14T03:27:52;7.91;80.79
68609;SHT31;55581;46.718;7.690;2023-03-14T03:30:18;7.94;82.71
68609;SHT31;55581;46.718;7.690;2023-03-14T03:32:44;7.84;85.31
68609;SHT31;55581;46.718;7.690;2023-03-14T03:35:10;7.77;85.45
68609;SHT31;55581;46.718;7.690;2023-03-14T03:37:35;7.66;87.24
68609;SHT31;55581;46.718;7.690;2023-03-14T03:40:02;7.64;86.98
68609;SHT31;55581;46.718;7.690;2023-03-14T03:42:31;7.63;86.14
68609;SHT31;55581;46.718;7.690;2023-03-14T03:44:57;7.77;85.20
68609;SHT31;55581;46.718;7.690;2023-03-14T03:47:24;7.79;84.03
68609;SHT31;55581;46.718;7.690;2023-03-14T03:49:50;7.77;83.30
68609;SHT31;55581;46.718;7.690;2023-03-14T03:52:15;7.78;83.23
68609;SHT31;55581;46.718;7.690;2023-03-14T03:54:40;7.63;87.33
68609;SHT31;55581;46.718;7.690;2023-03-14T03:57:06;7.56;87.25
68609;SHT31;55581;46.718;7.690;2023-03-14T03:59:34;7.39;87.35
68609;SHT31;55581;46.718;7.690;2023-03-14T04:02:00;7.32;88.41
68609;SHT31;55581;46.718;7.690;2023-03-14T04:04:25;7.22;88.07
68609;SHT31;55581;46.718;7.690;2023-03-14T04:06:53;7.18;87.33
68609;SHT31;55581;46.718;7.690;2023-03-14T04:09:19;7.18;88.55
68609;SHT31;55581;46.718;7.690;2023-03-14T04:11:45;7.15;87.10
68609;SHT31;55581;46.718;7.690;2023-03-14T04:14:11;7.11;86.56
68609;SHT31;55581;46.718;7.690;2023-03-14T04:16:36;7.02;88.69
68609;SHT31;55581;46.718;7.690;2023-03-14T04:19:02;7.02;87.77
68609;SHT31;55581;46.718;7.690;2023-03-14T04:21:28;7.04;89.11
68609;SHT31;55581;46.718;7.690;2023-03-14T04:23:53;7.22;81.39
68609;SHT31;55581;46.718;7.690;2023-03-14T04:26:19;7.43;80.34
68609;SHT31;55581;46.718;7.690;2023-03-14T04:32:06;7.79;78.73
68609;SHT31;55581;46.718;7.690;2023-03-14T04:34:31;7.81;78.20
68609;SHT31;55581;46.718;7.690;2023-03-14T04:36:59;7.85;80.73
68609;SHT31;55581;46.718;7.690;2023-03-14T04:39:24;7.73;81.24
68609;SHT31;55581;46.718;7.690;2023-03-14T04:41:50;7.68;82.12
68609;SHT31;55581;46.718;7.690;2023-03-14T04:44:15;7.54;82.68
68609;SHT31;55581;46.718;7.690;2023-03-14T04:46:43;7.50;82.38
68609;SHT31;55581;46.718;7.690;2023-03-14T04:49:10;7.44;84.25
68609;SHT31;55581;46.718;7.690;2023-03-14T04:51:35;7.42;82.75
68609;SHT31;55581;46.718;7.690;2023-03-14T04:54:00;7.44;83.16
68609;SHT31;55581;46.718;7.690;2023-03-14T04:56:26;7.42;82.77
68609;SHT31;55581;46.718;7.690;2023-03-14T04:58:52;7.40;78.84
68609;SHT31;55581;46.718;7.690;2023-03-14T05:01:18;7.24;83.92
68609;SHT31;55581;46.718;7.690;2023-03-14T05:03:43;7.22;83.32
68609;SHT31;55581;46.718;7.690;2023-03-14T05:06:12;7.20;81.71
68609;SHT31;55581;46.718;7.690;2023-03-14T05:08:37;7.20;83.97
68609;SHT31;55581;46.718;7.690;2023-03-14T05:11:03;7.27;84.62
68609;SHT31;55581;46.718;7.690;2023-03-14T05:13:28;7.29;86.66
68609;SHT31;55581;46.718;7.690;2023-03-14T05:15:53;7.27;86.57
68609;SHT31;55581;46.718;7.690;2023-03-14T05:18:20;7.18;84.81
68609;SHT31;55581;46.718;7.690;2023-03-14T05:20:46;7.01;89.65
68609;SHT31;55581;46.718;7.690;2023-03-14T05:23:11;6.98;89.67
68609;SHT31;55581;46.718;7.690;2023-03-14T05:25:37;6.98;89.61
68609;SHT31;55581;46.718;7.690;2023-03-14T05:28:04;6.94;89.85
68609;SHT31;55581;46.718;7.690;2023-03-14T05:30:33;6.88;89.78
68609;SHT31;55581;46.718;7.690;2023-03-14T05:32:58;6.85;89.38
68609;SHT31;55581;46.718;7.690;2023-03-14T05:35:26;6.81;89.22
68609;SHT31;55581;46.718;7.690;2023-03-14T05:37:52;6.78;89.39
68609;SHT31;55581;46.718;7.690;2023-03-14T05:40:20;6.74;89.61
68609;SHT31;55581;46.718;7.690;2023-03-14T05:42:45;6.64;89.73
68609;SHT31;55581;46.718;7.690;2023-03-14T05:45:10;6.61;90.55
68609;SHT31;55581;46.718;7.690;2023-03-14T05:47:36;6.64;90.53
68609;SHT31;55581;46.718;7.690;2023-03-14T05:50:01;6.60;90.23
68609;SHT31;55581;46.718;7.690;2023-03-14T05:52:27;6.60;90.24
68609;SHT31;55581;46.718;7.690;2023-03-14T05:54:52;6.60;89.86
68609;SHT31;55581;46.718;7.690;2023-03-14T05:57:18;6.60;89.79
68609;SHT31;55581;46.718;7.690;2023-03-14T05:59:43;6.61;89.49
68609;SHT31;55581;46.718;7.690;2023-03-14T06:02:08;6.67;85.27
68609;SHT31;55581;46.718;7.690;2023-03-14T06:04:34;6.73;85.70
68609;SHT31;55581;46.718;7.690;2023-03-14T06:06:59;6.73;88.51
68609;SHT31;55581;46.718;7.690;2023-03-14T06:09:27;6.71;88.87
68609;SHT31;55581;46.718;7.690;2023-03-14T06:11:53;6.77;87.09
68609;SHT31;55581;46.718;7.690;2023-03-14T06:14:21;6.74;87.12
68609;SHT31;55581;46.718;7.690;2023-03-14T06:16:46;6.66;90.21
68609;SHT31;55581;46.718;7.690;2023-03-14T06:19:14;6.75;89.64
68609;SHT31;55581;46.718;7.690;2023-03-14T06:21:39;6.84;87.08
68609;SHT31;55581;46.718;7.690;2023-03-14T06:24:05;6.83;87.96
68609;SHT31;55581;46.718;7.690;2023-03-14T06:26:33;6.91;87.81
68609;SHT31;55581;46.718;7.690;2023-03-14T06:28:59;6.98;88.44
68609;SHT31;55581;46.718;7.690;2023-03-14T06:31:31;7.06;87.62
68609;SHT31;55581;46.718;7.690;2023-03-14T06:33:57;7.05;87.84
68609;SHT31;55581;46.718;7.690;2023-03-14T06:36:24;7.08;88.83
68609;SHT31;55581;46.718;7.690;2023-03-14T06:38:50;7.09;88.10
68609;SHT31;55581;46.718;7.690;2023-03-14T06:41:15;7.12;87.94
68609;SHT31;55581;46.718;7.690;2023-03-14T06:43:43;7.18;87.43
68609;SHT31;55581;46.718;7.690;2023-03-14T06:46:09;7.20;86.83
68609;SHT31;55581;46.718;7.690;2023-03-14T06:48:35;7.19;86.54
68609;SHT31;55581;46.718;7.690;2023-03-14T06:51:01;7.16;87.76
68609;SHT31;55581;46.718;7.690;2023-03-14T06:53:27;7.12;87.67
68609;SHT31;55581;46.718;7.690;2023-03-14T06:55:53;7.16;87.62
68609;SHT31;55581;46.718;7.690;2023-03-14T06:58:18;7.24;87.00
68609;SHT31;55581;46.718;7.690;2023-03-14T07:00:43;7.27;87.87
68609;SHT31;55581;46.718;7.690;2023-03-14T07:03:13;7.26;88.53
68609;SHT31;55581;46.718;7.690;2023-03-14T07:05:38;7.44;85.65
68609;SHT31;55581;46.718;7.690;2023-03-14T07:08:06;7.50;85.55
68609;SHT31;55581;46.718;7.690;2023-03-14T07:10:33;7.59;85.61
68609;SHT31;55581;46.718;7.690;2023-03-14T07:12:58;7.57;86.01
68609;SHT31;55581;46.718;7.690;2023-03-14T07:15:24;7.49;88.21
68609;SHT31;55581;46.718;7.690;2023-03-14T07:17:49;7.44;88.13
68609;SHT31;55581;46.718;7.690;2023-03-14T07:20:15;7.53;87.59
68609;SHT31;55581;46.718;7.690;2023-03-14T07:22:41;7.54;86.22
68609;SHT31;55581;46.718;7.690;2023-03-14T07:25:06;7.50;87.02
68609;SHT31;55581;46.718;7.690;2023-03-14T07:27:34;7.40;87.31
68609;SHT31;55581;46.718;7.690;2023-03-14T07:29:59;7.29;87.81
68609;SHT31;55581;46.718;7.690;2023-03-14T07:32:25;7.34;88.23
68609;SHT31;55581;46.718;7.690;2023-03-14T07:34:51;7.36;88.17
68609;SHT31;55581;46.718;7.690;2023-03-14T07:37:17;7.51;88.05
68609;SHT31;55581;46.718;7.690;2023-03-14T07:39:42;7.54;87.76
68609;SHT31;55581;46.718;7.690;2023-03-14T07:42:08;7.57;86.97
68609;SHT31;55581;46.718;7.690;2023-03-14T07:44:33;7.61;86.75
68609;SHT31;55581;46.718;7.690;2023-03-14T07:46:59;7.57;86.60
68609;SHT31;55581;46.718;7.690;2023-03-14T07:49:24;7.61;86.16
68609;SHT31;55581;46.718;7.690;2023-03-14T07:51:54;7.63;86.34
68609;SHT31;55581;46.718;7.690;2023-03-14T07:54:19;7.61;86.53
68609;SHT31;55581;46.718;7.690;2023-03-14T07:56:45;7.59;86.59
68609;SHT31;55581;46.718;7.690;2023-03-14T07:59:10;7.66;86.57
68609;SHT31;55581;46.718;7.690;2023-03-14T08:01:37;7.70;86.81
68609;SHT31;55581;46.718;7.690;2023-03-14T08:04:03;7.67;88.03
68609;SHT31;55581;46.718;7.690;2023-03-14T08:06:30;7.75;87.52
68609;SHT31;55581;46.718;7.690;2023-03-14T08:08:56;7.82;84.74
68609;SHT31;55581;46.718;7.690;2023-03-14T08:11:21;7.87;84.38
68609;SHT31;55581;46.718;7.690;2023-03-14T08:13:47;7.79;86.22
68609;SHT31;55581;46.718;7.690;2023-03-14T08:16:16;7.88;84.89
68609;SHT31;55581;46.718;7.690;2023-03-14T08:18:42;7.95;84.10
68609;SHT31;55581;46.718;7.690;2023-03-14T08:21:08;7.99;84.31
68609;SHT31;55581;46.718;7.690;2023-03-14T08:23:33;8.05;84.09
68609;SHT31;55581;46.718;7.690;2023-03-14T08:25:58;8.06;84.40
68609;SHT31;55581;46.718;7.690;2023-03-14T08:28:24;8.10;81.50
68609;SHT31;55581;46.718;7.690;2023-03-14T08:30:50;8.29;82.84
68609;SHT31;55581;46.718;7.690;2023-03-14T08:33:16;8.54;73.70
68609;SHT31;55581;46.718;7.690;2023-03-14T08:35:41;8.93;67.97
68609;SHT31;55581;46.718;7.690;2023-03-14T08:38:09;9.19;70.74
68609;SHT31;55581;46.718;7.690;2023-03-14T08:40:35;9.23;71.10
68609;SHT31;55581;46.718;7.690;2023-03-14T08:43:04;9.39;69.50
68609;SHT31;55581;46.718;7.690;2023-03-14T08:45:32;9.47;68.40
68609;SHT31;55581;46.718;7.690;2023-03-14T08:47:58;9.61;66.45
68609;SHT31;55581;46.718;7.690;2023-03-14T08:50:23;9.73;65.98
68609;SHT31;55581;46.718;7.690;2023-03-14T08:52:49;9.74;69.67
68609;SHT31;55581;46.718;7.690;2023-03-14T08:55:18;9.70;69.79
68609;SHT31;55581;46.718;7.690;2023-03-14T08:57:44;9.70;69.12
68609;SHT31;55581;46.718;7.690;2023-03-14T09:00:09;9.64;69.17
68609;SHT31;55581;46.718;7.690;2023-03-14T09:02:40;9.65;72.06
68609;SHT31;55581;46.718;7.690;2023-03-14T09:05:07;9.69;69.09
68609;SHT31;55581;46.718;7.690;2023-03-14T09:07:32;9.70;70.92
68609;SHT31;55581;46.718;7.690;2023-03-14T09:09:58;9.75;68.68
68609;SHT31;55581;46.718;7.690;2023-03-14T09:12:23;9.81;67.64
68609;SHT31;55581;46.718;7.690;2023-03-14T09:14:49;9.82;66.70
68609;SHT31;55581;46.718;7.690;2023-03-14T09:17:14;9.80;70.56
68609;SHT31;55581;46.718;7.690;2023-03-14T09:19:44;9.87;69.50
68609;SHT31;55581;46.718;7.690;2023-03-14T09:22:10;9.90;66.64
68609;SHT31;55581;46.718;7.690;2023-03-14T09:24:35;9.87;71.93
68609;SHT31;55581;46.718;7.690;2023-03-14T09:27:01;9.46;77.35
68609;SHT31;55581;46.718;7.690;2023-03-14T09:29:27;9.37;77.00
68609;SHT31;55581;46.718;7.690;2023-03-14T09:31:52;9.26;76.76
68609;SHT31;55581;46.718;7.690;2023-03-14T09:34:20;9.23;76.53
68609;SHT31;55581;46.718;7.690;2023-03-14T09:36:47;9.29;74.29
68609;SHT31;55581;46.718;7.690;2023-03-14T09:39:12;9.26;73.98
68609;SHT31;55581;46.718;7.690;2023-03-14T09:41:40;9.23;77.54
68609;SHT31;55581;46.718;7.690;2023-03-14T09:44:12;9.19;77.57
68609;SHT31;55581;46.718;7.690;2023-03-14T09:46:39;9.14;79.52
68609;SHT31;55581;46.718;7.690;2023-03-14T09:49:20;9.09;83.43
68609;SHT31;55581;46.718;7.690;2023-03-14T09:51:49;9.07;84.40
68609;SHT31;55581;46.718;7.690;2023-03-14T09:54:31;9.08;83.27
68609;SHT31;55581;46.718;7.690;2023-03-14T09:56:57;9.20;79.28
68609;SHT31;55581;46.718;7.690;2023-03-14T09:59:23;9.11;81.06
68609;SHT31;55581;46.718;7.690;2023-03-14T10:01:48;9.14;84.53
68609;SHT31;55581;46.718;7.690;2023-03-14T10:04:17;8.91;83.47
68609;SHT31;55581;46.718;7.690;2023-03-14T10:06:44;8.77;82.32
68609;SHT31;55581;46.718;7.690;2023-03-14T10:09:21;8.67;84.19
68609;SHT31;55581;46.718;7.690;2023-03-14T10:11:56;8.59;86.10
68609;SHT31;55581;46.718;7.690;2023-03-14T10:14:44;8.60;86.18
68609;SHT31;55581;46.718;7.690;2023-03-14T10:17:13;8.65;85.52
68609;SHT31;55581;46.718;7.690;2023-03-14T10:20:00;8.56;88.02
68609;SHT31;55581;46.718;7.690;2023-03-14T10:22:29;8.44;85.62
68609;SHT31;55581;46.718;7.690;2023-03-14T10:25:04;8.42;86.62
68609;SHT31;55581;46.718;7.690;2023-03-14T10:27:35;8.46;81.28
68609;SHT31;55581;46.718;7.690;2023-03-14T10:30:04;8.61;80.48
68609;SHT31;55581;46.718;7.690;2023-03-14T10:32:38;8.54;85.38
68609;SHT31;55581;46.718;7.690;2023-03-14T10:40:20;8.56;83.54
68609;SHT31;55581;46.718;7.690;2023-03-14T10:42:48;8.64;79.43
68609;SHT31;55581;46.718;7.690;2023-03-14T10:45:28;8.57;83.28
68609;SHT31;55581;46.718;7.690;2023-03-14T10:47:59;8.54;84.70
68609;SHT31;55581;46.718;7.690;2023-03-14T10:50:31;8.47;85.40
68609;SHT31;55581;46.718;7.690;2023-03-14T10:52:59;8.64;73.94
68609;SHT31;55581;46.718;7.690;2023-03-14T10:55:43;8.74;79.45
68609;SHT31;55581;46.718;7.690;2023-03-14T10:58:29;8.87;76.23
68609;SHT31;55581;46.718;7.690;2023-03-14T11:03:43;8.82;78.35
68609;SHT31;55581;46.718;7.690;2023-03-14T11:06:16;8.74;84.32
68609;SHT31;55581;46.718;7.690;2023-03-14T11:11:32;8.65;84.63
68609;SHT31;55581;46.718;7.690;2023-03-14T11:14:59;8.78;85.50
68609;SHT31;55581;46.718;7.690;2023-03-14T11:22:50;8.59;83.23
68609;SHT31;55581;46.718;7.690;2023-03-14T11:25:47;8.57;82.32
68609;SHT31;55581;46.718;7.690;2023-03-14T11:30:54;8.59;84.22
68609;SHT31;55581;46.718;7.690;2023-03-14T11:33:26;8.50;86.42
68609;SHT31;55581;46.718;7.690;2023-03-14T11:36:08;8.44;85.36
68609;SHT31;55581;46.718;7.690;2023-03-14T11:38:50;8.42;85.61
68609;SHT31;55581;46.718;7.690;2023-03-14T11:41:30;8.32;86.96
68609;SHT31;55581;46.718;7.690;2023-03-14T11:43:57;8.33;87.51
68609;SHT31;55581;46.718;7.690;2023-03-14T11:46:56;8.32;87.28
68609;SHT31;55581;46.718;7.690;2023-03-14T11:49:42;8.32;82.26
68609;SHT31;55581;46.718;7.690;2023-03-14T11:52:39;8.47;80.81
68609;SHT31;55581;46.718;7.690;2023-03-14T11:55:35;8.54;78.40
68609;SHT31;55581;46.718;7.690;2023-03-14T11:58:05;8.57;80.57
68609;SHT31;55581;46.718;7.690;2023-03-14T12:00:35;8.54;80.85
68609;SHT31;55581;46.718;7.690;2023-03-14T12:03:29;8.47;80.95
68609;SHT31;55581;46.718;7.690;2023-03-14T12:05:59;8.46;82.29
68609;SHT31;55581;46.718;7.690;2023-03-14T12:08:33;8.39;82.01
68609;SHT31;55581;46.718;7.690;2023-03-14T12:11:10;8.39;79.71
68609;SHT31;55581;46.718;7.690;2023-03-14T12:13:38;7.88;77.72
68609;SHT31;55581;46.718;7.690;2023-03-14T12:16:06;7.60;79.49
68609;SHT31;55581;46.718;7.690;2023-03-14T12:18:39;7.32;79.50
68609;SHT31;55581;46.718;7.690;2023-03-14T12:21:10;6.88;79.80
68609;SHT31;55581;46.718;7.690;2023-03-14T12:23:54;6.66;80.99
68609;SHT31;55581;46.718;7.690;2023-03-14T12:26:24;6.41;80.24
68609;SHT31;55581;46.718;7.690;2023-03-14T12:36:48;6.20;80.17
68609;SHT31;55581;46.718;7.690;2023-03-14T12:41:51;6.37;82.77
68609;SHT31;55581;46.718;7.690;2023-03-14T12:47:14;6.73;76.01
68609;SHT31;55581;46.718;7.690;2023-03-14T12:49:50;6.84;74.88
68609;SHT31;55581;46.718;7.690;2023-03-14T12:52:45;6.99;73.30
68609;SHT31;55581;46.718;7.690;2023-03-14T12:55:19;7.18;74.71
68609;SHT31;55581;46.718;7.690;2023-03-14T12:58:03;7.30;70.94
68609;SHT31;55581;46.718;7.690;2023-03-14T13:00:34;7.37;70.85
68609;SHT31;55581;46.718;7.690;2023-03-14T13:03:18;7.43;70.88
68609;SHT31;55581;46.718;7.690;2023-03-14T13:05:58;7.44;69.67
68609;SHT31;55581;46.718;7.690;2023-03-14T13:08:45;7.53;68.93
68609;SHT31;55581;46.718;7.690;2023-03-14T13:11:19;7.68;68.46
68609;SHT31;55581;46.718;7.690;2023-03-14T13:13:48;7.81;65.54
68609;SHT31;55581;46.718;7.690;2023-03-14T13:16:18;7.89;65.16
68609;SHT31;55581;46.718;7.690;2023-03-14T13:19:11;7.99;65.05
68609;SHT31;55581;46.718;7.690;2023-03-14T13:21:35;8.05;65.98
68609;SHT31;55581;46.718;7.690;2023-03-14T13:24:25;8.12;65.19
68609;SHT31;55581;46.718;7.690;2023-03-14T13:26:55;8.12;66.35
68609;SHT31;55581;46.718;7.690;2023-03-14T13:31:48;8.23;64.14
68609;SHT31;55581;46.718;7.690;2023-03-14T13:34:14;8.22;62.66
68609;SHT31;55581;46.718;7.690;2023-03-14T13:36:39;8.32;64.65
68609;SHT31;55581;46.718;7.690;2023-03-14T13:39:13;8.37;63.49
68609;SHT31;55581;46.718;7.690;2023-03-14T13:41:40;8.25;62.77
68609;SHT31;55581;46.718;7.690;2023-03-14T13:44:08;8.36;67.40
68609;SHT31;55581;46.718;7.690;2023-03-14T13:46:36;8.34;63.10
68609;SHT31;55581;46.718;7.690;2023-03-14T13:49:03;8.37;63.96
68609;SHT31;55581;46.718;7.690;2023-03-14T13:51:30;8.60;65.45
68609;SHT31;55581;46.718;7.690;2023-03-14T13:53:59;8.75;66.99
68609;SHT31;55581;46.718;7.690;2023-03-14T13:56:31;8.92;67.89
68609;SHT31;55581;46.718;7.690;2023-03-14T13:58:56;9.14;66.14
68609;SHT31;55581;46.718;7.690;2023-03-14T14:01:37;9.48;66.76
68609;SHT31;55581;46.718;7.690;2023-03-14T14:04:08;9.74;67.48
68609;SHT31;55581;46.718;7.690;2023-03-14T14:06:46;9.97;63.20
68609;SHT31;55581;46.718;7.690;2023-03-14T14:09:13;10.08;60.42
68609;SHT31;55581;46.718;7.690;2023-03-14T14:11:44;10.01;60.22
68609;SHT31;55581;46.718;7.690;2023-03-14T14:14:20;9.99;58.37
68609;SHT31;55581;46.718;7.690;2023-03-14T14:16:47;10.39;60.80
68609;SHT31;55581;46.718;7.690;2023-03-14T14:19:15;10.87;59.47
68609;SHT31;55581;46.718;7.690;2023-03-14T14:21:42;11.05;56.33
68609;SHT31;55581;46.718;7.690;2023-03-14T14:24:14;11.35;55.11
68609;SHT31;55581;46.718;7.690;2023-03-14T14:26:54;11.43;56.46
68609;SHT31;55581;46.718;7.690;2023-03-14T14:34:48;10.77;52.39
68609;SHT31;55581;46.718;7.690;2023-03-14T14:37:28;10.37;53.87
68609;SHT31;55581;46.718;7.690;2023-03-14T14:40:00;10.22;57.11
68609;SHT31;55581;46.718;7.690;2023-03-14T14:42:30;10.05;57.94
68609;SHT31;55581;46.718;7.690;2023-03-14T14:44:59;10.11;56.34
68609;SHT31;55581;46.718;7.690;2023-03-14T14:47:27;10.19;54.91
68609;SHT31;55581;46.718;7.690;2023-03-14T14:49:55;10.60;54.86
68609;SHT31;55581;46.718;7.690;2023-03-14T14:52:43;11.11;56.37
68609;SHT31;55581;46.718;7.690;2023-03-14T14:55:19;11.57;49.67
68609;SHT31;55581;46.718;7.690;2023-03-14T14:57:53;12.01;51.40
68609;SHT31;55581;46.718;7.690;2023-03-14T15:00:26;12.02;50.48
68609;SHT31;55581;46.718;7.690;2023-03-14T15:02:55;12.08;51.93
68609;SHT31;55581;46.718;7.690;2023-03-14T15:05:25;12.15;49.56
68609;SHT31;55581;46.718;7.690;2023-03-14T15:07:55;12.18;47.48
68609;SHT31;55581;46.718;7.690;2023-03-14T15:10:23;12.26;48.14
68609;SHT31;55581;46.718;7.690;2023-03-14T15:12:49;12.33;47.68
68609;SHT31;55581;46.718;7.690;2023-03-14T15:15:16;12.28;50.33
68609;SHT31;55581;46.718;7.690;2023-03-14T15:17:42;12.31;47.48
68609;SHT31;55581;46.718;7.690;2023-03-14T15:20:13;12.25;51.35
68609;SHT31;55581;46.718;7.690;2023-03-14T15:22:39;12.15;50.79
68609;SHT31;55581;46.718;7.690;2023-03-14T15:25:05;11.88;48.93
68609;SHT31;55581;46.718;7.690;2023-03-14T15:27:32;11.52;51.14
68609;SHT31;55581;46.718;7.690;2023-03-14T15:29:58;11.23;49.31
68609;SHT31;55581;46.718;7.690;2023-03-14T15:32:24;11.02;52.15
68609;SHT31;55581;46.718;7.690;2023-03-14T15:34:54;10.90;55.21
68609;SHT31;55581;46.718;7.690;2023-03-14T15:37:20;10.70;56.88
68609;SHT31;55581;46.718;7.690;2023-03-14T15:39:46;10.63;56.62
68609;SHT31;55581;46.718;7.690;2023-03-14T15:42:12;10.47;56.96
68609;SHT31;55581;46.718;7.690;2023-03-14T15:44:40;10.45;56.56
68609;SHT31;55581;46.718;7.690;2023-03-14T15:47:08;10.43;58.10
68609;SHT31;55581;46.718;7.690;2023-03-14T15:49:37;10.43;57.02
68609;SHT31;55581;46.718;7.690;2023-03-14T15:52:05;10.42;55.03
68609;SHT31;55581;46.718;7.690;2023-03-14T15:54:33;10.32;58.15
68609;SHT31;55581;46.718;7.690;2023-03-14T15:56:58;10.20;56.19
68609;SHT31;55581;46.718;7.690;2023-03-14T15:59:26;10.15;56.60
68609;SHT31;55581;46.718;7.690;2023-03-14T16:01:52;10.15;58.86
68609;SHT31;55581;46.718;7.690;2023-03-14T16:04:17;9.98;61.59
68609;SHT31;55581;46.718;7.690;2023-03-14T16:06:46;9.87;66.00
68609;SHT31;55581;46.718;7.690;2023-03-14T16:09:12;9.75;67.96
68609;SHT31;55581;46.718;7.690;2023-03-14T16:11:38;9.69;64.68
68609;SHT31;55581;46.718;7.690;2023-03-14T16:14:03;9.58;65.16
68609;SHT31;55581;46.718;7.690;2023-03-14T16:16:29;9.32;66.09
68609;SHT31;55581;46.718;7.690;2023-03-14T16:18:56;8.85;66.86
68609;SHT31;55581;46.718;7.690;2023-03-14T16:21:21;8.80;68.96
68609;SHT31;55581;46.718;7.690;2023-03-14T16:23:47;8.57;70.96
68609;SHT31;55581;46.718;7.690;2023-03-14T16:26:14;8.44;72.10
68609;SHT31;55581;46.718;7.690;2023-03-14T16:28:40;8.36;72.21
68609;SHT31;55581;46.718;7.690;2023-03-14T16:31:09;8.19;73.88
68609;SHT31;55581;46.718;7.690;2023-03-14T16:33:36;8.13;73.01
68609;SHT31;55581;46.718;7.690;2023-03-14T16:36:03;8.08;73.43
68609;SHT31;55581;46.718;7.690;2023-03-14T16:38:30;8.13;75.38
68609;SHT31;55581;46.718;7.690;2023-03-14T16:41:05;8.12;76.03
68609;SHT31;55581;46.718;7.690;2023-03-14T16:43:35;8.06;73.82
68609;SHT31;55581;46.718;7.690;2023-03-14T16:46:02;8.06;75.55
68609;SHT31;55581;46.718;7.690;2023-03-14T16:48:28;8.05;75.11
68609;SHT31;55581;46.718;7.690;2023-03-14T16:50:54;8.10;74.00